createdAt,value
2018-03-14T00:00:05.940Z,8.63
2018-03-14T00:02:38.430Z,9.40
2018-03-14T00:05:10.970Z,8.77
2018-03-14T00:07:43.496Z,9.03
2018-03-14T00:10:16.063Z,8.70
2018-03-14T00:12:48.551Z,8.80
2018-03-14T00:15:21.066Z,9.03
2018-03-14T00:17:53.556Z,8.63
2018-03-14T00:20:26.082Z,8.70
2018-03-14T00:22:58.573Z,8.67
2018-03-14T00:25:31.089Z,8.23
2018-03-14T00:28:03.586Z,9.43
2018-03-14T00:30:36.104Z,9.00
2018-03-14T00:33:08.600Z,8.83
2018-03-14T00:35:41.184Z,8.93
2018-03-14T00:38:13.702Z,8.77
2018-03-14T00:40:46.257Z,8.23
2018-03-14T00:43:18.757Z,9.07
2018-03-14T00:45:51.280Z,8.73
2018-03-14T00:48:23.775Z,8.73
2018-03-14T00:50:56.288Z,9.20
2018-03-14T00:53:28.774Z,8.90
2018-03-14T00:56:01.291Z,9.17
2018-03-14T00:58:33.782Z,8.90
2018-03-14T01:01:06.291Z,8.10
2018-03-14T01:03:38.778Z,8.17
2018-03-14T01:06:11.371Z,8.83
2018-03-14T01:08:43.832Z,8.93
2018-03-14T01:11:16.382Z,8.77
2018-03-14T01:13:48.882Z,8.57
2018-03-14T01:16:21.394Z,8.10
2018-03-14T01:18:53.883Z,8.87
2018-03-14T01:21:26.408Z,8.17
2018-03-14T01:23:58.911Z,9.30
2018-03-14T01:26:31.435Z,8.07
2018-03-14T01:29:03.934Z,7.97
2018-03-14T01:31:36.455Z,8.30
2018-03-14T01:34:08.945Z,8.53
2018-03-14T01:36:41.490Z,8.50
2018-03-14T01:39:14.028Z,7.77
2018-03-14T01:41:46.566Z,8.27
2018-03-14T01:44:19.073Z,7.73
2018-03-14T01:46:51.589Z,9.53
2018-03-14T01:49:24.092Z,8.37
2018-03-14T01:51:56.615Z,8.17
2018-03-14T01:54:29.113Z,7.83
2018-03-14T01:57:01.643Z,8.57
2018-03-14T01:59:34.141Z,8.67
2018-03-14T02:02:06.655Z,8.20
2018-03-14T02:04:39.151Z,7.53
2018-03-14T02:07:11.743Z,8.10
2018-03-14T02:09:44.292Z,8.17
2018-03-14T02:12:16.826Z,7.17
2018-03-14T02:14:49.326Z,8.27
2018-03-14T02:17:21.851Z,9.00
2018-03-14T02:19:54.338Z,7.83
2018-03-14T02:22:26.863Z,9.43
2018-03-14T02:24:59.359Z,8.40
2018-03-14T02:27:31.875Z,7.73
2018-03-14T02:30:04.363Z,8.17
2018-03-14T02:32:36.883Z,9.00
2018-03-14T02:35:09.385Z,8.20
2018-03-14T02:37:41.939Z,9.20
2018-03-14T02:40:14.468Z,8.73
2018-03-14T02:42:47.015Z,8.27
2018-03-14T02:45:19.511Z,8.70
2018-03-14T02:47:52.010Z,8.30
2018-03-14T02:50:24.494Z,8.40
2018-03-14T02:52:56.995Z,8.47
2018-03-14T02:55:29.467Z,9.30
2018-03-14T02:58:01.968Z,9.37
2018-03-14T03:00:34.442Z,9.87
2018-03-14T03:03:06.930Z,9.90
2018-03-14T03:05:39.422Z,8.43
2018-03-14T03:08:11.965Z,9.90
2018-03-14T03:10:44.487Z,9.27
2018-03-14T03:13:17.092Z,10.20
2018-03-14T03:15:49.603Z,10.57
2018-03-14T03:18:22.102Z,9.00
2018-03-14T03:20:54.606Z,10.20
2018-03-14T03:23:27.099Z,9.60
2018-03-14T03:25:59.575Z,10.80
2018-03-14T03:28:32.066Z,12.07
2018-03-14T03:31:04.549Z,10.50
2018-03-14T03:33:37.052Z,10.50
2018-03-14T03:36:09.563Z,13.30
2018-03-14T03:38:42.142Z,15.30
2018-03-14T03:41:14.658Z,13.00
2018-03-14T03:43:47.177Z,15.20
2018-03-14T03:46:19.660Z,12.77
2018-03-14T03:48:52.167Z,12.77
2018-03-14T03:51:24.655Z,13.57
2018-03-14T03:53:57.156Z,12.83
2018-03-14T03:56:29.634Z,12.70
2018-03-14T03:59:02.136Z,12.37
2018-03-14T04:01:34.623Z,12.33
2018-03-14T04:04:07.122Z,13.47
2018-03-14T04:06:39.633Z,12.93
2018-03-14T04:09:12.216Z,13.27
2018-03-14T04:11:44.728Z,12.37
2018-03-14T04:14:17.251Z,12.27
2018-03-14T04:16:49.762Z,12.03
2018-03-14T04:19:22.268Z,12.53
2018-03-14T04:21:54.759Z,12.57
2018-03-14T04:24:27.267Z,11.57
2018-03-14T04:26:59.747Z,13.03
2018-03-14T04:29:32.254Z,11.73
2018-03-14T04:32:04.748Z,11.80
2018-03-14T04:34:37.254Z,11.43
2018-03-14T04:37:09.762Z,11.23
2018-03-14T04:39:42.288Z,12.23
2018-03-14T04:42:14.850Z,10.90
2018-03-14T04:44:47.374Z,11.50
2018-03-14T04:47:19.889Z,12.13
2018-03-14T04:49:52.390Z,11.37
2018-03-14T04:52:24.874Z,12.27
2018-03-14T04:54:57.366Z,11.97
2018-03-14T04:57:29.855Z,11.57
2018-03-14T05:00:02.363Z,11.87
2018-03-14T05:02:34.847Z,12.43
2018-03-14T05:05:07.351Z,11.93
2018-03-14T05:07:39.834Z,11.67
2018-03-14T05:10:12.464Z,11.33
2018-03-14T05:12:45.022Z,11.03
2018-03-14T05:15:17.582Z,10.80
2018-03-14T05:17:50.065Z,11.30
2018-03-14T05:20:22.570Z,11.70
2018-03-14T05:22:55.062Z,11.40
2018-03-14T05:25:27.572Z,10.67
2018-03-14T05:28:00.056Z,11.00
2018-03-14T05:30:32.560Z,11.00
2018-03-14T05:33:05.038Z,10.97
2018-03-14T05:35:37.538Z,10.57
2018-03-14T05:38:10.059Z,11.60
2018-03-14T05:40:42.627Z,11.30
2018-03-14T05:43:15.119Z,10.33
2018-03-14T05:45:47.673Z,10.63
2018-03-14T05:48:20.178Z,10.90
2018-03-14T05:50:52.686Z,11.07
2018-03-14T05:53:25.159Z,10.40
2018-03-14T05:55:57.657Z,10.33
2018-03-14T05:58:30.181Z,10.00
2018-03-14T06:01:02.658Z,10.17
2018-03-14T06:03:35.158Z,10.83
2018-03-14T06:06:07.647Z,10.63
2018-03-14T06:08:40.282Z,11.73
2018-03-14T06:11:12.801Z,10.57
2018-03-14T06:13:45.333Z,10.77
2018-03-14T06:16:17.855Z,10.40
2018-03-14T06:18:50.379Z,11.37
2018-03-14T06:21:22.872Z,10.83
2018-03-14T06:23:55.380Z,10.70
2018-03-14T06:26:27.859Z,11.87
2018-03-14T06:29:00.368Z,10.67
2018-03-14T06:31:32.851Z,10.97
2018-03-14T06:34:05.344Z,10.27
2018-03-14T06:36:37.836Z,10.43
2018-03-14T06:39:10.932Z,10.97
2018-03-14T06:41:43.469Z,10.97
2018-03-14T06:44:16.000Z,11.23
2018-03-14T06:46:48.520Z,12.20
2018-03-14T06:49:21.038Z,10.83
2018-03-14T06:51:53.710Z,10.93
2018-03-14T06:54:26.671Z,12.30
2018-03-14T06:56:59.525Z,10.33
2018-03-14T06:59:43.946Z,10.23
2018-03-14T07:02:28.159Z,10.93
2018-03-14T07:05:12.578Z,11.00
2018-03-14T07:07:45.060Z,11.77
2018-03-14T07:10:17.739Z,10.47
2018-03-14T07:12:50.351Z,11.73
2018-03-14T07:15:22.927Z,11.63
2018-03-14T07:17:55.466Z,11.90
2018-03-14T07:20:28.068Z,11.60
2018-03-14T07:23:00.562Z,11.40
2018-03-14T07:25:33.068Z,11.60
2018-03-14T07:28:05.547Z,12.50
2018-03-14T07:30:38.047Z,11.73
2018-03-14T07:33:10.541Z,12.63
2018-03-14T07:35:43.760Z,11.90
2018-03-14T07:38:16.253Z,10.97
2018-03-14T07:40:49.401Z,12.60
2018-03-14T07:43:21.969Z,11.33
2018-03-14T07:45:54.524Z,12.10
2018-03-14T07:48:27.014Z,12.83
2018-03-14T07:50:59.539Z,11.33
2018-03-14T07:53:32.019Z,12.83
2018-03-14T07:56:04.518Z,11.90
2018-03-14T07:58:37.007Z,12.60
2018-03-14T08:01:09.566Z,11.67
2018-03-14T08:03:42.054Z,11.33
2018-03-14T08:06:14.562Z,12.40
2018-03-14T08:08:47.040Z,11.77
2018-03-14T08:11:19.624Z,12.23
2018-03-14T08:13:52.259Z,12.13
2018-03-14T08:16:24.796Z,12.97
2018-03-14T08:18:57.391Z,11.37
2018-03-14T08:21:29.911Z,11.33
2018-03-14T08:24:02.394Z,11.73
2018-03-14T08:26:34.896Z,11.67
2018-03-14T08:29:07.397Z,10.77
2018-03-14T08:31:39.903Z,12.23
2018-03-14T08:34:12.387Z,11.90
2018-03-14T08:36:44.883Z,10.13
2018-03-14T08:39:17.398Z,9.80
2018-03-14T08:41:49.982Z,10.40
2018-03-14T08:44:22.538Z,11.23
2018-03-14T08:46:55.252Z,11.03
2018-03-14T08:49:27.728Z,11.03
2018-03-14T08:52:00.240Z,11.17
2018-03-14T08:54:32.728Z,11.10
2018-03-14T08:57:05.222Z,11.10
2018-03-14T08:59:37.711Z,11.57
2018-03-14T09:02:10.202Z,10.60
2018-03-14T09:04:42.679Z,11.43
2018-03-14T09:07:15.191Z,10.90
2018-03-14T09:09:48.090Z,9.90
2018-03-14T09:12:20.643Z,11.33
2018-03-14T09:14:53.193Z,9.97
2018-03-14T09:17:25.771Z,8.90
2018-03-14T09:19:58.278Z,8.90
2018-03-14T09:22:30.798Z,8.37
2018-03-14T09:25:03.267Z,7.40
2018-03-14T09:27:36.720Z,7.20
2018-03-14T09:30:09.181Z,7.17
2018-03-14T09:32:41.681Z,5.67
2018-03-14T09:35:14.158Z,5.10
2018-03-14T09:37:46.676Z,4.97
2018-03-14T09:40:19.276Z,5.07
2018-03-14T09:42:51.832Z,4.60
2018-03-14T09:45:24.328Z,4.80
2018-03-14T09:47:56.964Z,4.77
2018-03-14T09:50:29.458Z,4.33
2018-03-14T09:53:01.952Z,4.00
2018-03-14T09:55:34.434Z,3.50
2018-03-14T09:58:06.937Z,3.40
2018-03-14T10:00:39.411Z,3.40
2018-03-14T10:03:11.916Z,3.47
2018-03-14T10:05:44.434Z,3.80
2018-03-14T10:08:16.954Z,3.70
2018-03-14T10:10:49.451Z,3.83
2018-03-14T10:13:22.016Z,3.73
2018-03-14T10:15:54.563Z,5.23
2018-03-14T10:18:27.086Z,5.30
2018-03-14T10:20:59.568Z,6.10
2018-03-14T10:23:32.071Z,7.60
2018-03-14T10:26:04.538Z,8.47
2018-03-14T10:28:37.058Z,8.70
2018-03-14T10:31:09.535Z,8.23
2018-03-14T10:33:42.052Z,10.13
2018-03-14T10:36:14.522Z,8.87
2018-03-14T10:38:47.042Z,9.97
2018-03-14T10:41:19.596Z,11.50
2018-03-14T10:43:52.184Z,12.57
2018-03-14T10:46:24.768Z,13.83
2018-03-14T10:48:57.328Z,14.90
2018-03-14T10:51:29.822Z,15.07
2018-03-14T10:54:02.310Z,15.93
2018-03-14T10:56:34.870Z,15.10
2018-03-14T10:59:07.345Z,15.80
2018-03-14T11:01:46.288Z,14.53
2018-03-14T11:04:18.822Z,13.77
2018-03-14T11:06:52.214Z,14.43
2018-03-14T11:09:24.779Z,13.63
2018-03-14T11:11:57.340Z,13.53
2018-03-14T11:14:30.671Z,14.70
2018-03-14T11:17:03.175Z,15.50
2018-03-14T11:19:35.677Z,15.50
2018-03-14T11:22:08.180Z,10.63
2018-03-14T11:24:40.670Z,12.63
2018-03-14T11:27:13.173Z,13.40
2018-03-14T11:29:45.662Z,14.17
2018-03-14T11:32:18.205Z,14.83
2018-03-14T11:34:50.707Z,15.80
2018-03-14T11:37:23.297Z,15.93
2018-03-14T11:39:56.222Z,13.73
2018-03-14T11:42:28.787Z,13.67
2018-03-14T11:45:01.273Z,14.23
2018-03-14T11:47:33.789Z,15.33
2018-03-14T11:50:06.286Z,12.17
2018-03-14T11:52:38.792Z,13.80
2018-03-14T11:55:11.274Z,14.13
2018-03-14T11:57:43.783Z,12.97
2018-03-14T12:00:16.284Z,12.33
2018-03-14T12:02:49.548Z,12.90
2018-03-14T12:05:22.125Z,12.03
2018-03-14T12:07:55.264Z,14.27
2018-03-14T12:10:27.800Z,15.80
2018-03-14T12:13:00.309Z,15.00
2018-03-14T12:15:32.795Z,14.60
2018-03-14T12:18:05.306Z,15.40
2018-03-14T12:20:38.696Z,14.97
2018-03-14T12:23:11.223Z,12.93
2018-03-14T12:25:43.707Z,13.20
2018-03-14T12:28:16.214Z,12.97
2018-03-14T12:30:48.763Z,14.57
2018-03-14T12:33:21.317Z,16.57
2018-03-14T12:35:53.877Z,17.20
2018-03-14T12:38:26.445Z,17.40
2018-03-14T12:40:58.962Z,18.37
2018-03-14T12:43:31.463Z,17.57
2018-03-14T12:46:04.735Z,17.83
2018-03-14T12:48:37.243Z,17.17
2018-03-14T12:51:09.744Z,15.33
2018-03-14T12:53:42.250Z,16.50
2018-03-14T12:56:14.770Z,14.50
2018-03-14T12:58:47.271Z,15.60
2018-03-14T13:01:19.814Z,13.33
2018-03-14T13:03:53.295Z,13.77
2018-03-14T13:06:25.817Z,14.90
2018-03-14T13:08:59.846Z,13.07
2018-03-14T13:11:32.367Z,13.20
2018-03-14T13:14:04.871Z,12.03
2018-03-14T13:16:37.368Z,11.93
2018-03-14T13:19:09.871Z,12.90
2018-03-14T13:21:42.362Z,10.73
2018-03-14T13:24:15.749Z,10.60
2018-03-14T13:26:48.276Z,10.67
2018-03-14T13:29:21.220Z,9.43
2018-03-14T13:31:53.724Z,8.33
2018-03-14T13:34:26.238Z,9.37
2018-03-14T13:36:58.725Z,9.00
2018-03-14T13:39:32.139Z,9.50
2018-03-14T13:42:04.615Z,8.73
2018-03-14T13:44:37.116Z,8.60
2018-03-14T13:47:09.600Z,8.43
2018-03-14T13:49:42.103Z,8.53
2018-03-14T13:52:16.324Z,8.03
2018-03-14T13:54:48.923Z,7.93
2018-03-14T13:57:21.443Z,8.30
2018-03-14T13:59:54.015Z,8.43
2018-03-14T14:02:26.596Z,7.80
2018-03-14T14:04:59.104Z,7.90
2018-03-14T14:07:31.575Z,7.80
2018-03-14T14:10:04.075Z,7.47
2018-03-14T14:12:36.571Z,6.77
2018-03-14T14:15:09.071Z,7.37
2018-03-14T14:17:42.500Z,6.80
2018-03-14T14:20:14.972Z,6.30
2018-03-14T14:22:47.476Z,5.30
2018-03-14T14:25:20.013Z,4.20
2018-03-14T14:27:52.559Z,3.77
2018-03-14T14:30:25.081Z,3.40
2018-03-14T14:32:57.580Z,3.17
2018-03-14T14:35:31.881Z,3.40
2018-03-14T14:38:04.400Z,2.67
2018-03-14T14:40:36.873Z,2.60
2018-03-14T14:43:09.371Z,2.50
2018-03-14T14:45:41.852Z,2.97
2018-03-14T14:48:14.346Z,2.60
2018-03-14T14:50:46.823Z,3.90
2018-03-14T14:53:19.351Z,3.50
2018-03-14T14:55:51.841Z,4.07
2018-03-14T14:58:24.399Z,3.83
2018-03-14T15:00:56.954Z,3.20
2018-03-14T15:03:29.454Z,3.50
2018-03-14T15:06:01.934Z,3.27
2018-03-14T15:08:34.428Z,3.73
2018-03-14T15:11:06.905Z,3.20
2018-03-14T15:13:39.397Z,3.77
2018-03-14T15:16:11.873Z,4.00
2018-03-14T15:18:44.373Z,3.30
2018-03-14T15:21:16.959Z,3.57
2018-03-14T15:23:49.429Z,3.67
2018-03-14T15:26:21.907Z,4.00
2018-03-14T15:28:55.360Z,3.80
2018-03-14T15:31:27.834Z,3.67
2018-03-14T15:34:03.069Z,3.30
2018-03-14T15:36:35.556Z,3.00
2018-03-14T15:39:08.057Z,2.87
2018-03-14T15:41:41.819Z,3.13
2018-03-14T15:44:14.324Z,3.17
2018-03-14T15:46:46.804Z,3.30
2018-03-14T15:49:20.091Z,3.33
2018-03-14T15:51:52.603Z,3.63
2018-03-14T15:54:25.145Z,3.60
2018-03-14T15:56:57.647Z,3.30
2018-03-14T15:59:30.138Z,3.80
2018-03-14T16:02:02.606Z,3.17
2018-03-14T16:04:35.102Z,3.50
2018-03-14T16:07:07.591Z,3.70
2018-03-14T16:09:40.091Z,3.77
2018-03-14T16:12:12.571Z,3.50
2018-03-14T16:14:45.975Z,3.80
2018-03-14T16:17:18.548Z,3.60
2018-03-14T16:19:51.059Z,3.70
2018-03-14T16:22:25.070Z,3.57
2018-03-14T16:24:57.609Z,3.90
2018-03-14T16:27:30.081Z,3.70
2018-03-14T16:30:02.580Z,3.57
2018-03-14T16:32:36.872Z,3.67
2018-03-14T16:35:09.374Z,3.43
2018-03-14T16:37:41.839Z,3.67
2018-03-14T16:40:14.331Z,4.00
2018-03-14T16:42:46.902Z,4.43
2018-03-14T16:45:19.443Z,4.23
2018-03-14T16:47:52.004Z,4.40
2018-03-14T16:50:24.558Z,4.00
2018-03-14T16:52:57.096Z,4.07
2018-03-14T16:55:29.604Z,4.50
2018-03-14T16:58:03.620Z,4.50
2018-03-14T17:00:36.206Z,4.77
2018-03-14T17:03:08.689Z,4.43
2018-03-14T17:05:42.140Z,4.70
2018-03-14T17:08:14.616Z,4.83
2018-03-14T17:10:47.130Z,5.60
2018-03-14T17:13:19.687Z,6.77
2018-03-14T17:15:53.178Z,6.17
2018-03-14T17:18:25.655Z,5.90
2018-03-14T17:20:58.162Z,5.63
2018-03-14T17:23:30.644Z,5.17
2018-03-14T17:26:03.159Z,5.60
2018-03-14T17:28:35.635Z,5.93
2018-03-14T17:31:08.131Z,5.70
2018-03-14T17:33:40.599Z,5.50
2018-03-14T17:36:13.111Z,6.07
2018-03-14T17:38:45.587Z,5.50
2018-03-14T17:41:18.144Z,5.40
2018-03-14T17:43:52.464Z,6.03
2018-03-14T17:46:25.064Z,5.80
2018-03-14T17:48:57.699Z,5.50
2018-03-14T17:51:30.235Z,6.27
2018-03-14T17:54:03.492Z,6.47
2018-03-14T17:56:35.972Z,5.40
2018-03-14T17:59:09.299Z,6.53
2018-03-14T18:01:41.792Z,5.43
2018-03-14T18:04:14.289Z,5.67
2018-03-14T18:06:46.772Z,6.70
2018-03-14T18:09:19.296Z,5.83
2018-03-14T18:11:52.627Z,5.80
2018-03-14T18:14:25.228Z,6.23
2018-03-14T18:16:58.600Z,6.33
2018-03-14T18:19:31.103Z,6.17
2018-03-14T18:22:04.387Z,8.27
2018-03-14T18:24:36.884Z,7.63
2018-03-14T18:27:11.596Z,6.50
2018-03-14T18:29:44.209Z,7.00
2018-03-14T18:32:16.686Z,7.10
2018-03-14T18:34:49.646Z,6.67
2018-03-14T18:37:22.153Z,6.70
2018-03-14T18:39:55.465Z,6.17
2018-03-14T18:42:28.020Z,6.47
2018-03-14T18:45:01.027Z,5.80
2018-03-14T18:47:33.560Z,5.73
2018-03-14T18:50:06.059Z,6.30
2018-03-14T18:52:38.540Z,6.00
2018-03-14T18:55:11.034Z,5.97
2018-03-14T18:57:43.499Z,5.50
2018-03-14T19:00:15.989Z,5.50
2018-03-14T19:02:48.553Z,5.43
2018-03-14T19:05:21.099Z,5.30
2018-03-14T19:07:53.792Z,5.13
2018-03-14T19:10:26.420Z,5.37
2018-03-14T19:12:59.035Z,5.90
2018-03-14T19:15:31.538Z,5.87
2018-03-14T19:18:04.021Z,5.87
2018-03-14T19:20:36.522Z,5.30
2018-03-14T19:23:08.990Z,5.23
2018-03-14T19:25:41.478Z,5.90
2018-03-14T19:28:13.954Z,5.63
2018-03-14T19:30:46.500Z,5.27
2018-03-14T19:33:19.024Z,5.50
2018-03-14T19:35:51.603Z,5.93
2018-03-14T19:38:24.196Z,5.53
2018-03-14T19:40:56.837Z,4.97
2018-03-14T19:43:29.327Z,5.27
2018-03-14T19:46:01.822Z,5.60
2018-03-14T19:48:34.310Z,6.20
2018-03-14T19:51:06.811Z,7.03
2018-03-14T19:53:39.288Z,5.73
2018-03-14T19:56:11.791Z,5.07
2018-03-14T19:58:44.266Z,5.20
2018-03-14T20:01:16.750Z,5.30
2018-03-14T20:03:49.261Z,5.37
2018-03-14T20:06:21.836Z,16.90
2018-03-14T20:08:54.474Z,6.90
2018-03-14T20:11:26.991Z,5.53
2018-03-14T20:13:59.472Z,6.37
2018-03-14T20:16:32.894Z,6.40
2018-03-14T20:19:05.506Z,6.53
2018-03-14T20:21:38.019Z,5.90
2018-03-14T20:24:10.608Z,5.57
2018-03-14T20:26:43.101Z,5.90
2018-03-14T20:29:15.685Z,6.53
2018-03-14T20:31:48.280Z,6.10
2018-03-14T20:34:21.008Z,6.30
2018-03-14T20:36:53.565Z,6.90
2018-03-14T20:39:26.120Z,6.87
2018-03-14T20:41:59.620Z,6.60
2018-03-14T20:44:32.103Z,6.70
2018-03-14T20:47:04.627Z,6.50
2018-03-14T20:49:37.103Z,7.10
2018-03-14T20:52:09.615Z,6.73
2018-03-14T20:54:42.093Z,6.67
2018-03-14T20:57:14.595Z,7.10
2018-03-14T20:59:47.067Z,6.90
2018-03-14T21:02:19.702Z,6.90
2018-03-14T21:04:52.191Z,7.70
2018-03-14T21:07:24.766Z,7.63
2018-03-14T21:09:57.280Z,7.60
2018-03-14T21:12:29.774Z,7.60
2018-03-14T21:15:02.251Z,7.90
2018-03-14T21:17:35.179Z,7.70
2018-03-14T21:20:07.654Z,8.13
2018-03-14T21:22:40.142Z,8.00
2018-03-14T21:25:12.634Z,7.93
2018-03-14T21:27:45.128Z,8.47
2018-03-14T21:30:17.624Z,8.60
2018-03-14T21:32:50.205Z,8.83
2018-03-14T21:35:22.714Z,8.93
2018-03-14T21:37:55.329Z,8.67
2018-03-14T21:40:27.803Z,8.33
2018-03-14T21:43:00.296Z,9.53
2018-03-14T21:45:32.788Z,8.93
2018-03-14T21:48:05.298Z,8.57
2018-03-14T21:50:37.770Z,8.97
2018-03-14T21:53:10.266Z,8.87
2018-03-14T21:55:43.735Z,9.10
2018-03-14T21:58:16.240Z,9.03
2018-03-14T22:00:48.738Z,9.43
2018-03-14T22:03:21.272Z,8.60
2018-03-14T22:05:53.806Z,8.93
2018-03-14T22:08:26.372Z,9.70
2018-03-14T22:10:59.648Z,9.67
2018-03-14T22:13:32.637Z,9.70
2018-03-14T22:16:05.153Z,9.93
2018-03-14T22:18:37.701Z,10.30
2018-03-14T22:21:10.223Z,10.40
2018-03-14T22:23:42.714Z,10.00
2018-03-14T22:26:15.225Z,10.67
2018-03-14T22:28:47.742Z,11.10
2018-03-14T22:31:20.323Z,10.47
2018-03-14T22:33:52.858Z,10.93
2018-03-14T22:36:25.515Z,10.30
2018-03-14T22:38:57.999Z,10.47
2018-03-14T22:41:30.535Z,10.43
2018-03-14T22:44:03.019Z,10.63
2018-03-14T22:46:35.526Z,10.53
2018-03-14T22:49:08.010Z,10.03
2018-03-14T22:51:40.510Z,11.10
2018-03-14T22:54:12.991Z,10.63
2018-03-14T22:56:45.482Z,9.80
2018-03-14T22:59:18.019Z,9.97
2018-03-14T23:01:51.584Z,10.10
2018-03-14T23:04:24.089Z,8.23
2018-03-14T23:06:56.620Z,9.60
2018-03-14T23:09:29.138Z,9.70
2018-03-14T23:12:01.642Z,8.73
2018-03-14T23:14:34.116Z,9.93
2018-03-14T23:17:06.614Z,10.07
2018-03-14T23:19:39.096Z,9.80
2018-03-14T23:22:11.604Z,10.20
2018-03-14T23:24:44.138Z,9.67
2018-03-14T23:27:17.245Z,8.90
2018-03-14T23:29:49.757Z,9.90
2018-03-14T23:32:22.300Z,10.13
2018-03-14T23:34:54.795Z,9.87
2018-03-14T23:37:27.321Z,9.30
2018-03-14T23:39:59.815Z,9.30
2018-03-14T23:42:32.319Z,9.73
2018-03-14T23:45:04.794Z,8.53
2018-03-14T23:47:37.295Z,9.20
2018-03-14T23:50:09.771Z,8.97
2018-03-14T23:52:42.948Z,8.90
2018-03-14T23:55:15.408Z,10.03
2018-03-14T23:57:47.983Z,8.67
